Terminal Aerodrome Forecast
Issued by NWS

Home | Current Version | Previous Version | Text Only | Print | Product List | Glossary On
Versions: 1 2 3 4 5 6 7 8 9 10 11 12 13 14 15 16 17
000
FTUS44 KTSA 210500
TAFRVS
TAF
KRVS 210527Z 2106/2206 17003KT P6SM OVC018
     FM210900 18005KT 4SM BR OVC012
     FM211200 18005KT 3SM BR OVC007
     FM211800 17008KT 5SM BR OVC015=

USA.gov is the U.S. government's official web portal to all federal, state and local government web resources and services.